sensor_id;sensor_type;location;lat;lon;timestamp;P1;durP1;ratioP1;P2;durP2;ratioP2
30505;SDS011;17292;51.600;4.994;2022-10-23T00:00:32;4.75;;;2.80;;
30505;SDS011;17292;51.600;4.994;2022-10-23T00:02:58;6.10;;;2.58;;
30505;SDS011;17292;51.600;4.994;2022-10-23T00:05:25;5.15;;;2.70;;
30505;SDS011;17292;51.600;4.994;2022-10-23T00:07:52;4.72;;;2.40;;
30505;SDS011;17292;51.600;4.994;2022-10-23T00:10:19;5.07;;;2.25;;
30505;SDS011;17292;51.600;4.994;2022-10-23T00:12:45;4.35;;;2.70;;
30505;SDS011;17292;51.600;4.994;2022-10-23T00:15:12;4.65;;;3.03;;
30505;SDS011;17292;51.600;4.994;2022-10-23T00:17:39;6.78;;;2.90;;
30505;SDS011;17292;51.600;4.994;2022-10-23T00:20:05;4.35;;;2.20;;
30505;SDS011;17292;51.600;4.994;2022-10-23T00:22:32;2.90;;;2.03;;
30505;SDS011;17292;51.600;4.994;2022-10-23T00:24:58;3.78;;;2.50;;
30505;SDS011;17292;51.600;4.994;2022-10-23T00:27:24;3.13;;;2.30;;
30505;SDS011;17292;51.600;4.994;2022-10-23T00:29:51;4.65;;;2.95;;
30505;SDS011;17292;51.600;4.994;2022-10-23T00:32:17;6.63;;;2.75;;
30505;SDS011;17292;51.600;4.994;2022-10-23T00:34:43;4.82;;;2.80;;
30505;SDS011;17292;51.600;4.994;2022-10-23T00:37:09;6.00;;;2.53;;
30505;SDS011;17292;51.600;4.994;2022-10-23T00:39:36;5.10;;;2.60;;
30505;SDS011;17292;51.600;4.994;2022-10-23T00:42:02;4.65;;;2.22;;
30505;SDS011;17292;51.600;4.994;2022-10-23T00:46:55;7.53;;;2.75;;
30505;SDS011;17292;51.600;4.994;2022-10-23T00:49:21;4.22;;;2.25;;
30505;SDS011;17292;51.600;4.994;2022-10-23T00:51:54;5.57;;;2.50;;
30505;SDS011;17292;51.600;4.994;2022-10-23T00:54:22;4.03;;;2.60;;
30505;SDS011;17292;51.600;4.994;2022-10-23T00:56:50;6.82;;;2.95;;
30505;SDS011;17292;51.600;4.994;2022-10-23T00:59:17;7.45;;;2.80;;
30505;SDS011;17292;51.600;4.994;2022-10-23T01:01:43;3.83;;;2.47;;
30505;SDS011;17292;51.600;4.994;2022-10-23T01:04:09;4.25;;;2.70;;
30505;SDS011;17292;51.600;4.994;2022-10-23T01:11:36;3.65;;;2.58;;
30505;SDS011;17292;51.600;4.994;2022-10-23T01:16:40;3.45;;;2.40;;
30505;SDS011;17292;51.600;4.994;2022-10-23T01:19:26;5.40;;;2.88;;
30505;SDS011;17292;51.600;4.994;2022-10-23T01:22:00;4.40;;;2.53;;
30505;SDS011;17292;51.600;4.994;2022-10-23T01:32:39;6.68;;;2.50;;
30505;SDS011;17292;51.600;4.994;2022-10-23T01:35:04;4.75;;;2.20;;
30505;SDS011;17292;51.600;4.994;2022-10-23T01:37:42;5.55;;;2.42;;
30505;SDS011;17292;51.600;4.994;2022-10-23T01:40:11;3.85;;;2.63;;
30505;SDS011;17292;51.600;4.994;2022-10-23T01:42:40;3.30;;;2.20;;
30505;SDS011;17292;51.600;4.994;2022-10-23T01:45:15;6.75;;;2.40;;
30505;SDS011;17292;51.600;4.994;2022-10-23T01:47:43;4.18;;;2.65;;
30505;SDS011;17292;51.600;4.994;2022-10-23T01:50:10;3.45;;;2.40;;
30505;SDS011;17292;51.600;4.994;2022-10-23T01:52:38;4.03;;;2.58;;
30505;SDS011;17292;51.600;4.994;2022-10-23T01:55:04;4.80;;;2.60;;
30505;SDS011;17292;51.600;4.994;2022-10-23T01:57:32;5.50;;;2.70;;
30505;SDS011;17292;51.600;4.994;2022-10-23T02:00:05;4.20;;;2.40;;
30505;SDS011;17292;51.600;4.994;2022-10-23T02:02:32;3.13;;;2.13;;
30505;SDS011;17292;51.600;4.994;2022-10-23T02:07:26;7.70;;;2.80;;
30505;SDS011;17292;51.600;4.994;2022-10-23T02:09:53;5.97;;;2.60;;
30505;SDS011;17292;51.600;4.994;2022-10-23T02:12:25;5.47;;;2.38;;
30505;SDS011;17292;51.600;4.994;2022-10-23T02:14:53;3.85;;;2.40;;
30505;SDS011;17292;51.600;4.994;2022-10-23T02:17:24;6.47;;;2.92;;
30505;SDS011;17292;51.600;4.994;2022-10-23T02:22:42;4.35;;;2.33;;
30505;SDS011;17292;51.600;4.994;2022-10-23T02:25:16;4.53;;;2.80;;
30505;SDS011;17292;51.600;4.994;2022-10-23T02:27:44;5.68;;;2.97;;
30505;SDS011;17292;51.600;4.994;2022-10-23T02:30:12;4.80;;;2.45;;
30505;SDS011;17292;51.600;4.994;2022-10-23T02:32:40;5.10;;;2.35;;
30505;SDS011;17292;51.600;4.994;2022-10-23T02:35:07;5.40;;;2.53;;
30505;SDS011;17292;51.600;4.994;2022-10-23T02:37:34;3.03;;;2.20;;
30505;SDS011;17292;51.600;4.994;2022-10-23T02:40:00;4.18;;;2.40;;
30505;SDS011;17292;51.600;4.994;2022-10-23T02:42:29;6.32;;;2.80;;
30505;SDS011;17292;51.600;4.994;2022-10-23T02:45:04;5.28;;;2.53;;
30505;SDS011;17292;51.600;4.994;2022-10-23T02:47:36;3.70;;;2.10;;
30505;SDS011;17292;51.600;4.994;2022-10-23T02:55:22;4.57;;;2.85;;
30505;SDS011;17292;51.600;4.994;2022-10-23T02:57:53;3.80;;;2.50;;
30505;SDS011;17292;51.600;4.994;2022-10-23T03:00:21;4.30;;;2.45;;
30505;SDS011;17292;51.600;4.994;2022-10-23T03:05:18;5.53;;;2.35;;
30505;SDS011;17292;51.600;4.994;2022-10-23T03:07:45;4.90;;;2.40;;
30505;SDS011;17292;51.600;4.994;2022-10-23T03:10:12;4.05;;;2.28;;
30505;SDS011;17292;51.600;4.994;2022-10-23T03:12:38;2.40;;;2.17;;
30505;SDS011;17292;51.600;4.994;2022-10-23T03:15:05;3.55;;;2.13;;
30505;SDS011;17292;51.600;4.994;2022-10-23T03:17:31;7.65;;;2.65;;
30505;SDS011;17292;51.600;4.994;2022-10-23T03:19:57;3.65;;;2.40;;
30505;SDS011;17292;51.600;4.994;2022-10-23T03:22:23;3.80;;;2.55;;
30505;SDS011;17292;51.600;4.994;2022-10-23T03:24:50;5.65;;;2.67;;
30505;SDS011;17292;51.600;4.994;2022-10-23T03:27:16;5.07;;;2.83;;
30505;SDS011;17292;51.600;4.994;2022-10-23T03:29:42;3.25;;;2.33;;
30505;SDS011;17292;51.600;4.994;2022-10-23T03:32:09;3.67;;;2.50;;
30505;SDS011;17292;51.600;4.994;2022-10-23T03:34:35;3.90;;;2.40;;
30505;SDS011;17292;51.600;4.994;2022-10-23T03:37:01;4.85;;;2.35;;
30505;SDS011;17292;51.600;4.994;2022-10-23T03:39:27;6.55;;;2.63;;
30505;SDS011;17292;51.600;4.994;2022-10-23T03:41:53;4.03;;;2.28;;
30505;SDS011;17292;51.600;4.994;2022-10-23T03:44:19;4.28;;;2.50;;
30505;SDS011;17292;51.600;4.994;2022-10-23T03:46:46;4.28;;;2.00;;
30505;SDS011;17292;51.600;4.994;2022-10-23T03:49:12;5.25;;;2.25;;
30505;SDS011;17292;51.600;4.994;2022-10-23T03:51:38;5.90;;;2.45;;
30505;SDS011;17292;51.600;4.994;2022-10-23T03:54:06;3.13;;;2.35;;
30505;SDS011;17292;51.600;4.994;2022-10-23T03:56:32;3.47;;;2.25;;
30505;SDS011;17292;51.600;4.994;2022-10-23T03:58:58;3.63;;;2.00;;
30505;SDS011;17292;51.600;4.994;2022-10-23T04:01:25;2.72;;;2.50;;
30505;SDS011;17292;51.600;4.994;2022-10-23T04:03:51;3.80;;;2.47;;
30505;SDS011;17292;51.600;4.994;2022-10-23T04:06:17;5.85;;;2.35;;
30505;SDS011;17292;51.600;4.994;2022-10-23T04:08:43;3.78;;;2.40;;
30505;SDS011;17292;51.600;4.994;2022-10-23T04:11:10;7.32;;;2.83;;
30505;SDS011;17292;51.600;4.994;2022-10-23T04:13:36;5.55;;;2.40;;
30505;SDS011;17292;51.600;4.994;2022-10-23T04:16:02;3.00;;;2.65;;
30505;SDS011;17292;51.600;4.994;2022-10-23T04:18:28;3.28;;;2.10;;
30505;SDS011;17292;51.600;4.994;2022-10-23T04:20:54;3.92;;;2.30;;
30505;SDS011;17292;51.600;4.994;2022-10-23T04:23:21;3.10;;;2.10;;
30505;SDS011;17292;51.600;4.994;2022-10-23T04:25:47;3.17;;;1.98;;
30505;SDS011;17292;51.600;4.994;2022-10-23T04:28:13;5.60;;;2.80;;
30505;SDS011;17292;51.600;4.994;2022-10-23T04:30:39;2.40;;;2.03;;
30505;SDS011;17292;51.600;4.994;2022-10-23T04:33:05;3.35;;;2.35;;
30505;SDS011;17292;51.600;4.994;2022-10-23T04:35:32;3.47;;;2.40;;
30505;SDS011;17292;51.600;4.994;2022-10-23T04:37:58;2.72;;;2.25;;
30505;SDS011;17292;51.600;4.994;2022-10-23T04:40:24;2.85;;;2.00;;
30505;SDS011;17292;51.600;4.994;2022-10-23T04:42:50;3.63;;;2.33;;
30505;SDS011;17292;51.600;4.994;2022-10-23T04:45:16;3.38;;;2.00;;
30505;SDS011;17292;51.600;4.994;2022-10-23T04:47:43;2.78;;;2.13;;
30505;SDS011;17292;51.600;4.994;2022-10-23T04:50:09;2.75;;;2.00;;
30505;SDS011;17292;51.600;4.994;2022-10-23T04:52:35;3.42;;;2.53;;
30505;SDS011;17292;51.600;4.994;2022-10-23T04:55:01;2.95;;;2.08;;
30505;SDS011;17292;51.600;4.994;2022-10-23T04:57:27;2.88;;;2.22;;
30505;SDS011;17292;51.600;4.994;2022-10-23T04:59:53;2.80;;;2.38;;
30505;SDS011;17292;51.600;4.994;2022-10-23T05:02:20;4.43;;;2.17;;
30505;SDS011;17292;51.600;4.994;2022-10-23T05:04:47;3.03;;;2.20;;
30505;SDS011;17292;51.600;4.994;2022-10-23T05:07:13;2.58;;;2.10;;
30505;SDS011;17292;51.600;4.994;2022-10-23T05:09:39;4.15;;;2.60;;
30505;SDS011;17292;51.600;4.994;2022-10-23T05:12:06;2.88;;;2.40;;
30505;SDS011;17292;51.600;4.994;2022-10-23T05:14:32;4.22;;;2.35;;
30505;SDS011;17292;51.600;4.994;2022-10-23T05:17:02;4.50;;;2.58;;
30505;SDS011;17292;51.600;4.994;2022-10-23T05:19:31;3.97;;;2.10;;
30505;SDS011;17292;51.600;4.994;2022-10-23T05:21:59;3.67;;;2.50;;
30505;SDS011;17292;51.600;4.994;2022-10-23T05:24:26;3.75;;;2.28;;
30505;SDS011;17292;51.600;4.994;2022-10-23T05:26:52;3.78;;;2.45;;
30505;SDS011;17292;51.600;4.994;2022-10-23T05:29:19;3.42;;;2.20;;
30505;SDS011;17292;51.600;4.994;2022-10-23T05:31:45;4.18;;;2.20;;
30505;SDS011;17292;51.600;4.994;2022-10-23T05:34:12;2.47;;;1.83;;
30505;SDS011;17292;51.600;4.994;2022-10-23T05:36:39;3.63;;;2.30;;
30505;SDS011;17292;51.600;4.994;2022-10-23T05:39:05;3.38;;;2.05;;
30505;SDS011;17292;51.600;4.994;2022-10-23T05:41:31;2.20;;;2.00;;
30505;SDS011;17292;51.600;4.994;2022-10-23T05:43:57;3.90;;;2.00;;
30505;SDS011;17292;51.600;4.994;2022-10-23T05:46:24;5.35;;;2.50;;
30505;SDS011;17292;51.600;4.994;2022-10-23T05:48:52;2.78;;;2.15;;
30505;SDS011;17292;51.600;4.994;2022-10-23T05:51:18;3.42;;;2.33;;
30505;SDS011;17292;51.600;4.994;2022-10-23T05:53:49;3.92;;;2.08;;
30505;SDS011;17292;51.600;4.994;2022-10-23T05:56:15;3.65;;;2.30;;
30505;SDS011;17292;51.600;4.994;2022-10-23T05:58:41;6.00;;;2.20;;
30505;SDS011;17292;51.600;4.994;2022-10-23T06:01:09;2.17;;;2.00;;
30505;SDS011;17292;51.600;4.994;2022-10-23T06:03:36;3.10;;;2.25;;
30505;SDS011;17292;51.600;4.994;2022-10-23T06:06:02;4.53;;;2.28;;
30505;SDS011;17292;51.600;4.994;2022-10-23T06:08:29;3.17;;;2.20;;
30505;SDS011;17292;51.600;4.994;2022-10-23T06:10:55;5.00;;;2.67;;
30505;SDS011;17292;51.600;4.994;2022-10-23T06:13:22;3.08;;;2.20;;
30505;SDS011;17292;51.600;4.994;2022-10-23T06:15:48;5.07;;;2.47;;
30505;SDS011;17292;51.600;4.994;2022-10-23T06:18:14;2.90;;;2.05;;
30505;SDS011;17292;51.600;4.994;2022-10-23T06:20:41;3.28;;;2.45;;
30505;SDS011;17292;51.600;4.994;2022-10-23T06:23:07;7.38;;;2.65;;
30505;SDS011;17292;51.600;4.994;2022-10-23T06:25:33;4.35;;;2.53;;
30505;SDS011;17292;51.600;4.994;2022-10-23T06:27:59;2.83;;;2.10;;
30505;SDS011;17292;51.600;4.994;2022-10-23T06:30:25;3.53;;;2.13;;
30505;SDS011;17292;51.600;4.994;2022-10-23T06:32:52;2.95;;;2.22;;
30505;SDS011;17292;51.600;4.994;2022-10-23T06:35:18;2.97;;;2.03;;
30505;SDS011;17292;51.600;4.994;2022-10-23T06:37:44;2.33;;;2.05;;
30505;SDS011;17292;51.600;4.994;2022-10-23T06:40:11;4.47;;;2.22;;
30505;SDS011;17292;51.600;4.994;2022-10-23T06:42:37;3.40;;;2.08;;
30505;SDS011;17292;51.600;4.994;2022-10-23T06:45:03;3.97;;;2.40;;
30505;SDS011;17292;51.600;4.994;2022-10-23T06:47:30;3.17;;;2.20;;
30505;SDS011;17292;51.600;4.994;2022-10-23T06:49:56;4.50;;;1.90;;
30505;SDS011;17292;51.600;4.994;2022-10-23T06:52:22;5.57;;;2.20;;
30505;SDS011;17292;51.600;4.994;2022-10-23T06:54:48;3.58;;;2.47;;
30505;SDS011;17292;51.600;4.994;2022-10-23T06:57:15;2.55;;;2.08;;
30505;SDS011;17292;51.600;4.994;2022-10-23T06:59:41;4.10;;;1.98;;
30505;SDS011;17292;51.600;4.994;2022-10-23T07:02:07;2.55;;;2.20;;
30505;SDS011;17292;51.600;4.994;2022-10-23T07:04:34;3.20;;;2.00;;
30505;SDS011;17292;51.600;4.994;2022-10-23T07:07:00;3.58;;;2.17;;
30505;SDS011;17292;51.600;4.994;2022-10-23T07:09:26;2.10;;;1.90;;
30505;SDS011;17292;51.600;4.994;2022-10-23T07:11:52;2.63;;;2.17;;
30505;SDS011;17292;51.600;4.994;2022-10-23T07:14:18;2.35;;;1.95;;
30505;SDS011;17292;51.600;4.994;2022-10-23T07:16:45;3.05;;;2.00;;
30505;SDS011;17292;51.600;4.994;2022-10-23T07:19:11;2.97;;;1.95;;
30505;SDS011;17292;51.600;4.994;2022-10-23T07:21:37;3.45;;;2.35;;
30505;SDS011;17292;51.600;4.994;2022-10-23T07:24:03;3.47;;;2.03;;
30505;SDS011;17292;51.600;4.994;2022-10-23T07:26:29;3.28;;;1.83;;
30505;SDS011;17292;51.600;4.994;2022-10-23T07:28:57;3.08;;;2.03;;
30505;SDS011;17292;51.600;4.994;2022-10-23T07:31:24;2.70;;;1.90;;
30505;SDS011;17292;51.600;4.994;2022-10-23T07:33:50;3.92;;;2.67;;
30505;SDS011;17292;51.600;4.994;2022-10-23T07:36:17;2.25;;;2.05;;
30505;SDS011;17292;51.600;4.994;2022-10-23T07:38:43;3.53;;;2.10;;
30505;SDS011;17292;51.600;4.994;2022-10-23T07:41:10;3.60;;;2.10;;
30505;SDS011;17292;51.600;4.994;2022-10-23T07:43:37;4.18;;;2.15;;
30505;SDS011;17292;51.600;4.994;2022-10-23T07:46:03;2.72;;;1.90;;
30505;SDS011;17292;51.600;4.994;2022-10-23T07:48:32;2.90;;;2.03;;
30505;SDS011;17292;51.600;4.994;2022-10-23T07:50:59;2.97;;;1.92;;
30505;SDS011;17292;51.600;4.994;2022-10-23T07:53:25;3.42;;;2.20;;
30505;SDS011;17292;51.600;4.994;2022-10-23T07:55:56;5.20;;;2.42;;
30505;SDS011;17292;51.600;4.994;2022-10-23T07:58:22;2.83;;;2.05;;
30505;SDS011;17292;51.600;4.994;2022-10-23T08:00:58;2.33;;;1.75;;
30505;SDS011;17292;51.600;4.994;2022-10-23T08:03:25;3.22;;;1.88;;
30505;SDS011;17292;51.600;4.994;2022-10-23T08:05:52;3.80;;;1.75;;
30505;SDS011;17292;51.600;4.994;2022-10-23T08:08:19;5.68;;;2.40;;
30505;SDS011;17292;51.600;4.994;2022-10-23T08:10:46;3.83;;;2.10;;
30505;SDS011;17292;51.600;4.994;2022-10-23T08:13:13;3.78;;;2.08;;
30505;SDS011;17292;51.600;4.994;2022-10-23T08:15:39;2.35;;;2.03;;
30505;SDS011;17292;51.600;4.994;2022-10-23T08:18:06;3.60;;;2.00;;
30505;SDS011;17292;51.600;4.994;2022-10-23T08:20:36;3.63;;;2.15;;
30505;SDS011;17292;51.600;4.994;2022-10-23T08:23:03;3.95;;;2.22;;
30505;SDS011;17292;51.600;4.994;2022-10-23T08:25:29;2.67;;;2.10;;
30505;SDS011;17292;51.600;4.994;2022-10-23T08:27:55;2.10;;;1.85;;
30505;SDS011;17292;51.600;4.994;2022-10-23T08:30:22;2.40;;;1.95;;
30505;SDS011;17292;51.600;4.994;2022-10-23T08:32:48;3.33;;;2.33;;
30505;SDS011;17292;51.600;4.994;2022-10-23T08:35:14;2.58;;;1.70;;
30505;SDS011;17292;51.600;4.994;2022-10-23T08:37:40;3.20;;;2.00;;
30505;SDS011;17292;51.600;4.994;2022-10-23T08:40:09;3.08;;;2.25;;
30505;SDS011;17292;51.600;4.994;2022-10-23T08:42:39;2.63;;;1.90;;
30505;SDS011;17292;51.600;4.994;2022-10-23T08:45:10;2.58;;;1.88;;
30505;SDS011;17292;51.600;4.994;2022-10-23T08:47:39;3.03;;;1.70;;
30505;SDS011;17292;51.600;4.994;2022-10-23T08:50:13;2.88;;;2.00;;
30505;SDS011;17292;51.600;4.994;2022-10-23T08:55:15;2.85;;;2.30;;
30505;SDS011;17292;51.600;4.994;2022-10-23T08:57:44;4.30;;;2.13;;
30505;SDS011;17292;51.600;4.994;2022-10-23T09:00:15;3.10;;;1.92;;
30505;SDS011;17292;51.600;4.994;2022-10-23T09:02:45;2.90;;;2.08;;
30505;SDS011;17292;51.600;4.994;2022-10-23T09:05:20;4.30;;;2.00;;
30505;SDS011;17292;51.600;4.994;2022-10-23T09:13:20;2.47;;;2.03;;
30505;SDS011;17292;51.600;4.994;2022-10-23T09:16:03;3.58;;;2.10;;
30505;SDS011;17292;51.600;4.994;2022-10-23T09:18:32;7.35;;;2.45;;
30505;SDS011;17292;51.600;4.994;2022-10-23T09:20:59;3.05;;;1.83;;
30505;SDS011;17292;51.600;4.994;2022-10-23T09:23:25;5.80;;;2.30;;
30505;SDS011;17292;51.600;4.994;2022-10-23T09:25:51;2.75;;;2.10;;
30505;SDS011;17292;51.600;4.994;2022-10-23T09:28:22;3.10;;;1.77;;
30505;SDS011;17292;51.600;4.994;2022-10-23T09:30:49;2.83;;;1.90;;
30505;SDS011;17292;51.600;4.994;2022-10-23T09:33:17;2.58;;;2.08;;
30505;SDS011;17292;51.600;4.994;2022-10-23T09:36:18;2.75;;;2.05;;
30505;SDS011;17292;51.600;4.994;2022-10-23T09:38:44;2.20;;;2.00;;
30505;SDS011;17292;51.600;4.994;2022-10-23T09:41:19;3.15;;;1.98;;
30505;SDS011;17292;51.600;4.994;2022-10-23T09:43:46;3.65;;;2.30;;
30505;SDS011;17292;51.600;4.994;2022-10-23T09:46:12;3.08;;;1.90;;
30505;SDS011;17292;51.600;4.994;2022-10-23T09:48:39;3.65;;;1.88;;
30505;SDS011;17292;51.600;4.994;2022-10-23T09:51:15;2.20;;;2.00;;
30505;SDS011;17292;51.600;4.994;2022-10-23T09:54:00;2.65;;;2.10;;
30505;SDS011;17292;51.600;4.994;2022-10-23T09:56:28;5.60;;;2.00;;
30505;SDS011;17292;51.600;4.994;2022-10-23T09:59:05;2.38;;;1.90;;
30505;SDS011;17292;51.600;4.994;2022-10-23T10:04:29;2.47;;;2.13;;
30505;SDS011;17292;51.600;4.994;2022-10-23T10:06:56;2.30;;;1.92;;
30505;SDS011;17292;51.600;4.994;2022-10-23T10:09:23;3.20;;;2.05;;
30505;SDS011;17292;51.600;4.994;2022-10-23T10:24:58;3.58;;;2.03;;
30505;SDS011;17292;51.600;4.994;2022-10-23T10:30:22;2.40;;;1.98;;
30505;SDS011;17292;51.600;4.994;2022-10-23T10:43:30;2.88;;;2.45;;
30505;SDS011;17292;51.600;4.994;2022-10-23T10:48:30;2.20;;;1.88;;
30505;SDS011;17292;51.600;4.994;2022-10-23T10:51:01;2.55;;;2.35;;
30505;SDS011;17292;51.600;4.994;2022-10-23T10:56:05;3.28;;;2.45;;
30505;SDS011;17292;51.600;4.994;2022-10-23T11:03:44;2.65;;;1.77;;
30505;SDS011;17292;51.600;4.994;2022-10-23T11:06:14;2.17;;;2.00;;
30505;SDS011;17292;51.600;4.994;2022-10-23T11:08:41;2.60;;;2.40;;
30505;SDS011;17292;51.600;4.994;2022-10-23T11:11:11;2.10;;;1.90;;
30505;SDS011;17292;51.600;4.994;2022-10-23T11:13:39;2.77;;;2.27;;
30505;SDS011;17292;51.600;4.994;2022-10-23T11:16:11;3.35;;;1.90;;
30505;SDS011;17292;51.600;4.994;2022-10-23T11:18:39;3.47;;;2.28;;
30505;SDS011;17292;51.600;4.994;2022-10-23T11:31:16;2.75;;;2.05;;
30505;SDS011;17292;51.600;4.994;2022-10-23T11:36:17;2.67;;;1.80;;
30505;SDS011;17292;51.600;4.994;2022-10-23T11:38:44;3.50;;;2.08;;
30505;SDS011;17292;51.600;4.994;2022-10-23T11:43:48;2.47;;;2.05;;
30505;SDS011;17292;51.600;4.994;2022-10-23T11:48:47;2.15;;;1.95;;
30505;SDS011;17292;51.600;4.994;2022-10-23T11:51:30;2.38;;;2.05;;
30505;SDS011;17292;51.600;4.994;2022-10-23T11:56:35;4.05;;;2.20;;
30505;SDS011;17292;51.600;4.994;2022-10-23T11:59:21;2.72;;;2.10;;
30505;SDS011;17292;51.600;4.994;2022-10-23T12:01:48;2.17;;;1.90;;
30505;SDS011;17292;51.600;4.994;2022-10-23T12:06:49;3.05;;;2.53;;
30505;SDS011;17292;51.600;4.994;2022-10-23T12:12:12;5.03;;;2.78;;
30505;SDS011;17292;51.600;4.994;2022-10-23T12:14:41;2.63;;;2.05;;
30505;SDS011;17292;51.600;4.994;2022-10-23T12:19:51;3.13;;;2.10;;
30505;SDS011;17292;51.600;4.994;2022-10-23T12:22:18;4.95;;;2.60;;
30505;SDS011;17292;51.600;4.994;2022-10-23T12:27:41;3.10;;;2.38;;
30505;SDS011;17292;51.600;4.994;2022-10-23T12:30:14;3.13;;;2.45;;
30505;SDS011;17292;51.600;4.994;2022-10-23T12:35:32;2.38;;;1.88;;
30505;SDS011;17292;51.600;4.994;2022-10-23T12:38:10;2.85;;;1.95;;
30505;SDS011;17292;51.600;4.994;2022-10-23T12:40:38;3.72;;;1.98;;
30505;SDS011;17292;51.600;4.994;2022-10-23T12:43:15;4.68;;;2.30;;
30505;SDS011;17292;51.600;4.994;2022-10-23T12:45:46;2.47;;;2.00;;
30505;SDS011;17292;51.600;4.994;2022-10-23T12:48:19;5.30;;;2.03;;
30505;SDS011;17292;51.600;4.994;2022-10-23T12:51:03;3.30;;;2.00;;
30505;SDS011;17292;51.600;4.994;2022-10-23T12:53:30;3.20;;;2.17;;
30505;SDS011;17292;51.600;4.994;2022-10-23T12:55:57;1.80;;;1.70;;
30505;SDS011;17292;51.600;4.994;2022-10-23T12:58:25;3.65;;;1.90;;
30505;SDS011;17292;51.600;4.994;2022-10-23T13:00:55;2.63;;;1.77;;
30505;SDS011;17292;51.600;4.994;2022-10-23T13:03:22;2.75;;;1.90;;
30505;SDS011;17292;51.600;4.994;2022-10-23T13:05:53;2.17;;;1.90;;
30505;SDS011;17292;51.600;4.994;2022-10-23T13:08:20;1.77;;;1.63;;
30505;SDS011;17292;51.600;4.994;2022-10-23T13:10:47;1.77;;;1.65;;
30505;SDS011;17292;51.600;4.994;2022-10-23T13:13:16;2.63;;;1.90;;
30505;SDS011;17292;51.600;4.994;2022-10-23T13:15:43;1.92;;;1.73;;
30505;SDS011;17292;51.600;4.994;2022-10-23T13:18:12;2.20;;;1.60;;
30505;SDS011;17292;51.600;4.994;2022-10-23T13:20:43;2.95;;;1.85;;
30505;SDS011;17292;51.600;4.994;2022-10-23T13:26:03;2.13;;;1.52;;
30505;SDS011;17292;51.600;4.994;2022-10-23T13:28:44;2.13;;;1.52;;
30505;SDS011;17292;51.600;4.994;2022-10-23T13:33:48;2.10;;;1.50;;
30505;SDS011;17292;51.600;4.994;2022-10-23T13:38:44;1.80;;;1.42;;
30505;SDS011;17292;51.600;4.994;2022-10-23T13:41:11;4.57;;;1.80;;
30505;SDS011;17292;51.600;4.994;2022-10-23T13:43:39;1.60;;;1.50;;
30505;SDS011;17292;51.600;4.994;2022-10-23T13:46:05;1.85;;;1.60;;
30505;SDS011;17292;51.600;4.994;2022-10-23T13:48:37;2.55;;;1.85;;
30505;SDS011;17292;51.600;4.994;2022-10-23T13:52:04;1.75;;;1.65;;
30505;SDS011;17292;51.600;4.994;2022-10-23T13:53:59;2.15;;;1.63;;
30505;SDS011;17292;51.600;4.994;2022-10-23T13:56:25;2.97;;;2.13;;
30505;SDS011;17292;51.600;4.994;2022-10-23T13:58:52;1.65;;;1.55;;
30505;SDS011;17292;51.600;4.994;2022-10-23T14:01:22;2.70;;;1.55;;
30505;SDS011;17292;51.600;4.994;2022-10-23T14:03:50;2.65;;;1.73;;
30505;SDS011;17292;51.600;4.994;2022-10-23T14:06:17;2.70;;;1.90;;
30505;SDS011;17292;51.600;4.994;2022-10-23T14:08:43;3.00;;;1.73;;
30505;SDS011;17292;51.600;4.994;2022-10-23T14:11:10;1.83;;;1.67;;
30505;SDS011;17292;51.600;4.994;2022-10-23T14:13:36;2.58;;;1.63;;
30505;SDS011;17292;51.600;4.994;2022-10-23T14:16:03;1.75;;;1.65;;
30505;SDS011;17292;51.600;4.994;2022-10-23T14:18:29;1.80;;;1.50;;
30505;SDS011;17292;51.600;4.994;2022-10-23T14:20:58;1.70;;;1.60;;
30505;SDS011;17292;51.600;4.994;2022-10-23T14:23:25;1.50;;;1.40;;
30505;SDS011;17292;51.600;4.994;2022-10-23T14:25:51;1.85;;;1.70;;
30505;SDS011;17292;51.600;4.994;2022-10-23T14:28:17;1.45;;;1.35;;
30505;SDS011;17292;51.600;4.994;2022-10-23T14:30:43;1.48;;;1.30;;
30505;SDS011;17292;51.600;4.994;2022-10-23T14:33:10;1.70;;;1.58;;
30505;SDS011;17292;51.600;4.994;2022-10-23T14:35:39;2.42;;;1.52;;
30505;SDS011;17292;51.600;4.994;2022-10-23T14:38:07;3.20;;;1.55;;
30505;SDS011;17292;51.600;4.994;2022-10-23T14:40:37;2.05;;;1.58;;
30505;SDS011;17292;51.600;4.994;2022-10-23T14:43:04;1.92;;;1.58;;
30505;SDS011;17292;51.600;4.994;2022-10-23T14:45:30;2.20;;;1.63;;
30505;SDS011;17292;51.600;4.994;2022-10-23T14:47:56;1.85;;;1.70;;
30505;SDS011;17292;51.600;4.994;2022-10-23T14:50:25;2.17;;;1.60;;
30505;SDS011;17292;51.600;4.994;2022-10-23T14:52:51;2.30;;;1.67;;
30505;SDS011;17292;51.600;4.994;2022-10-23T14:55:17;2.38;;;1.73;;
30505;SDS011;17292;51.600;4.994;2022-10-23T14:57:44;2.03;;;1.83;;
30505;SDS011;17292;51.600;4.994;2022-10-23T15:00:10;2.92;;;1.63;;
30505;SDS011;17292;51.600;4.994;2022-10-23T15:02:36;1.70;;;1.50;;
30505;SDS011;17292;51.600;4.994;2022-10-23T15:05:03;2.30;;;1.60;;
30505;SDS011;17292;51.600;4.994;2022-10-23T15:07:30;1.88;;;1.60;;
30505;SDS011;17292;51.600;4.994;2022-10-23T15:09:56;2.45;;;1.30;;
30505;SDS011;17292;51.600;4.994;2022-10-23T15:12:23;2.22;;;1.52;;
30505;SDS011;17292;51.600;4.994;2022-10-23T15:14:49;2.42;;;1.63;;
30505;SDS011;17292;51.600;4.994;2022-10-23T15:17:15;2.80;;;1.85;;
30505;SDS011;17292;51.600;4.994;2022-10-23T15:19:41;2.25;;;1.75;;
30505;SDS011;17292;51.600;4.994;2022-10-23T15:22:07;2.65;;;1.83;;
30505;SDS011;17292;51.600;4.994;2022-10-23T15:24:34;3.03;;;1.90;;
30505;SDS011;17292;51.600;4.994;2022-10-23T15:27:00;3.28;;;1.73;;
30505;SDS011;17292;51.600;4.994;2022-10-23T15:29:26;1.58;;;1.48;;
30505;SDS011;17292;51.600;4.994;2022-10-23T15:31:58;1.58;;;1.45;;
30505;SDS011;17292;51.600;4.994;2022-10-23T15:34:27;2.45;;;1.75;;
30505;SDS011;17292;51.600;4.994;2022-10-23T15:36:54;2.42;;;1.75;;
30505;SDS011;17292;51.600;4.994;2022-10-23T15:39:22;2.17;;;1.65;;
30505;SDS011;17292;51.600;4.994;2022-10-23T15:41:49;2.58;;;1.60;;
30505;SDS011;17292;51.600;4.994;2022-10-23T15:44:16;3.63;;;1.85;;
30505;SDS011;17292;51.600;4.994;2022-10-23T15:46:43;3.60;;;1.73;;
30505;SDS011;17292;51.600;4.994;2022-10-23T15:49:10;1.88;;;1.42;;
30505;SDS011;17292;51.600;4.994;2022-10-23T15:51:36;2.67;;;1.90;;
30505;SDS011;17292;51.600;4.994;2022-10-23T15:54:04;2.47;;;1.83;;
30505;SDS011;17292;51.600;4.994;2022-10-23T15:56:31;2.15;;;1.75;;
30505;SDS011;17292;51.600;4.994;2022-10-23T15:58:57;3.58;;;1.58;;
30505;SDS011;17292;51.600;4.994;2022-10-23T16:01:23;2.20;;;1.75;;
30505;SDS011;17292;51.600;4.994;2022-10-23T16:03:49;2.03;;;1.85;;
30505;SDS011;17292;51.600;4.994;2022-10-23T16:06:16;1.80;;;1.70;;
30505;SDS011;17292;51.600;4.994;2022-10-23T16:08:43;2.25;;;1.85;;
30505;SDS011;17292;51.600;4.994;2022-10-23T16:11:13;2.38;;;1.65;;
30505;SDS011;17292;51.600;4.994;2022-10-23T16:13:40;1.92;;;1.67;;
30505;SDS011;17292;51.600;4.994;2022-10-23T16:16:07;1.98;;;1.88;;
30505;SDS011;17292;51.600;4.994;2022-10-23T16:18:33;1.70;;;1.60;;
30505;SDS011;17292;51.600;4.994;2022-10-23T16:21:00;3.15;;;1.80;;
30505;SDS011;17292;51.600;4.994;2022-10-23T16:23:26;2.03;;;1.88;;
30505;SDS011;17292;51.600;4.994;2022-10-23T16:25:53;1.77;;;1.67;;
30505;SDS011;17292;51.600;4.994;2022-10-23T16:28:19;2.08;;;1.52;;
30505;SDS011;17292;51.600;4.994;2022-10-23T16:30:45;2.67;;;1.77;;
30505;SDS011;17292;51.600;4.994;2022-10-23T16:33:12;1.70;;;1.60;;
30505;SDS011;17292;51.600;4.994;2022-10-23T16:35:38;2.25;;;1.45;;
30505;SDS011;17292;51.600;4.994;2022-10-23T16:38:04;2.03;;;1.60;;
30505;SDS011;17292;51.600;4.994;2022-10-23T16:40:31;1.73;;;1.63;;
30505;SDS011;17292;51.600;4.994;2022-10-23T16:42:57;2.33;;;1.58;;
30505;SDS011;17292;51.600;4.994;2022-10-23T16:45:23;2.25;;;1.77;;
30505;SDS011;17292;51.600;4.994;2022-10-23T16:47:49;2.30;;;1.52;;
30505;SDS011;17292;51.600;4.994;2022-10-23T16:50:16;1.95;;;1.85;;
30505;SDS011;17292;51.600;4.994;2022-10-23T16:52:42;3.45;;;2.10;;